Terminal Aerodrome Forecast
Issued by NWS

Home | Current Version | Previous Version | Text Only | Print | Product List | Glossary On
Versions: 1 2 3 4 5 6 7 8 9 10 11 12 13 14 15 16 17 18 19 20 21 22 23 24 25 26 27 28 29 30 31 32 33 34 35 36 37 38 39
000
FTUS43 KDLH 281100
TAFBRD
TAF
KBRD 281120Z 2812/2912 20003KT P6SM SKC
      TEMPO 2812/2814 3SM BR
     FM281600 21009G14KT P6SM SCT040
     FM290000 VRB04KT P6SM SCT030 BKN050
     FM290400 01010G19KT 6SM -RA SCT015 OVC040
      TEMPO 2908/2912 05009KT 3SM -RA BR OVC012=

USA.gov is the U.S. government's official web portal to all federal, state and local government web resources and services.